sensor_id;sensor_type;location;lat;lon;timestamp;pressure;altitude;pressure_sealevel;temperature;humidity
71791;BME280;59638;52.126;5.434;2023-08-17T00:01:03;102189.78;;;16.73;100.00
71791;BME280;59638;52.126;5.434;2023-08-17T00:03:29;102188.09;;;16.72;100.00
71791;BME280;59638;52.126;5.434;2023-08-17T00:05:56;102192.59;;;16.71;100.00
71791;BME280;59638;52.126;5.434;2023-08-17T00:08:22;102187.38;;;16.70;100.00
71791;BME280;59638;52.126;5.434;2023-08-17T00:10:48;102186.44;;;16.71;100.00
71791;BME280;59638;52.126;5.434;2023-08-17T00:13:15;102179.38;;;16.70;100.00
71791;BME280;59638;52.126;5.434;2023-08-17T00:15:42;102180.34;;;16.69;100.00
71791;BME280;59638;52.126;5.434;2023-08-17T00:18:11;102181.66;;;16.65;100.00
71791;BME280;59638;52.126;5.434;2023-08-17T00:20:39;102178.56;;;16.59;100.00
71791;BME280;59638;52.126;5.434;2023-08-17T00:23:05;102184.88;;;16.58;100.00
71791;BME280;59638;52.126;5.434;2023-08-17T00:25:32;102173.81;;;16.53;100.00
71791;BME280;59638;52.126;5.434;2023-08-17T00:27:58;102183.06;;;16.49;100.00
71791;BME280;59638;52.126;5.434;2023-08-17T00:30:25;102184.19;;;16.47;100.00
71791;BME280;59638;52.126;5.434;2023-08-17T00:32:51;102188.97;;;16.43;100.00
71791;BME280;59638;52.126;5.434;2023-08-17T00:35:18;102189.25;;;16.40;100.00
71791;BME280;59638;52.126;5.434;2023-08-17T00:37:44;102180.00;;;16.35;100.00
71791;BME280;59638;52.126;5.434;2023-08-17T00:40:11;102182.13;;;16.31;100.00
71791;BME280;59638;52.126;5.434;2023-08-17T00:42:38;102178.75;;;16.29;100.00
71791;BME280;59638;52.126;5.434;2023-08-17T00:45:04;102180.03;;;16.25;100.00
71791;BME280;59638;52.126;5.434;2023-08-17T00:47:31;102169.38;;;16.25;100.00
71791;BME280;59638;52.126;5.434;2023-08-17T00:49:58;102170.34;;;16.24;100.00
71791;BME280;59638;52.126;5.434;2023-08-17T00:52:25;102177.38;;;16.25;100.00
71791;BME280;59638;52.126;5.434;2023-08-17T00:54:52;102168.53;;;16.24;100.00
71791;BME280;59638;52.126;5.434;2023-08-17T00:57:19;102180.03;;;16.25;100.00
71791;BME280;59638;52.126;5.434;2023-08-17T00:59:46;102169.66;;;16.22;100.00
71791;BME280;59638;52.126;5.434;2023-08-17T01:02:28;102171.31;;;16.23;100.00
71791;BME280;59638;52.126;5.434;2023-08-17T01:04:55;102168.66;;;16.23;100.00
71791;BME280;59638;52.126;5.434;2023-08-17T01:07:21;102168.81;;;16.21;100.00
71791;BME280;59638;52.126;5.434;2023-08-17T01:09:48;102176.94;;;16.20;100.00
71791;BME280;59638;52.126;5.434;2023-08-17T01:14:59;102173.44;;;16.19;100.00
71791;BME280;59638;52.126;5.434;2023-08-17T01:17:44;102181.16;;;16.22;100.00
71791;BME280;59638;52.126;5.434;2023-08-17T01:20:14;102177.38;;;16.25;100.00
71791;BME280;59638;52.126;5.434;2023-08-17T01:22:45;102169.50;;;16.23;100.00
71791;BME280;59638;52.126;5.434;2023-08-17T01:25:11;102163.22;;;16.24;100.00
71791;BME280;59638;52.126;5.434;2023-08-17T01:27:40;102164.06;;;16.25;100.00
71791;BME280;59638;52.126;5.434;2023-08-17T01:30:08;102166.56;;;16.26;100.00
71791;BME280;59638;52.126;5.434;2023-08-17T01:32:43;102169.38;;;16.25;100.00
71791;BME280;59638;52.126;5.434;2023-08-17T01:35:30;102160.56;;;16.24;100.00
71791;BME280;59638;52.126;5.434;2023-08-17T01:38:01;102164.06;;;16.25;100.00
71791;BME280;59638;52.126;5.434;2023-08-17T01:40:33;102155.34;;;16.23;100.00
71791;BME280;59638;52.126;5.434;2023-08-17T01:43:01;102152.66;;;16.23;100.00
71791;BME280;59638;52.126;5.434;2023-08-17T01:45:28;102163.34;;;16.23;100.00
71791;BME280;59638;52.126;5.434;2023-08-17T01:47:55;102166.28;;;16.20;100.00
71791;BME280;59638;52.126;5.434;2023-08-17T01:50:22;102158.44;;;16.18;100.00
71791;BME280;59638;52.126;5.434;2023-08-17T01:52:48;102158.44;;;16.18;100.00
71791;BME280;59638;52.126;5.434;2023-08-17T01:55:17;102162.94;;;16.18;100.00
71791;BME280;59638;52.126;5.434;2023-08-17T01:57:44;102163.91;;;16.17;100.00
71791;BME280;59638;52.126;5.434;2023-08-17T02:00:10;102154.22;;;16.16;100.00
71791;BME280;59638;52.126;5.434;2023-08-17T02:02:37;102155.91;;;16.17;100.00
71791;BME280;59638;52.126;5.434;2023-08-17T02:05:04;102153.53;;;16.14;100.00
71791;BME280;59638;52.126;5.434;2023-08-17T02:07:31;102149.47;;;16.10;100.00
71791;BME280;59638;52.126;5.434;2023-08-17T02:09:57;102156.06;;;16.06;100.00
71791;BME280;59638;52.126;5.434;2023-08-17T02:12:23;102154.81;;;16.00;100.00
71791;BME280;59638;52.126;5.434;2023-08-17T02:14:50;102153.69;;;15.93;100.00
71791;BME280;59638;52.126;5.434;2023-08-17T02:17:16;102156.09;;;15.86;100.00
71791;BME280;59638;52.126;5.434;2023-08-17T02:19:45;102162.94;;;15.79;100.00
71791;BME280;59638;52.126;5.434;2023-08-17T02:22:14;102166.03;;;15.74;100.00
71791;BME280;59638;52.126;5.434;2023-08-17T02:24:40;102167.84;;;15.74;100.00
71791;BME280;59638;52.126;5.434;2023-08-17T02:27:09;102161.53;;;15.75;100.00
71791;BME280;59638;52.126;5.434;2023-08-17T02:29:35;102157.88;;;15.76;100.00
71791;BME280;59638;52.126;5.434;2023-08-17T02:32:02;102160.41;;;15.77;100.00
71791;BME280;59638;52.126;5.434;2023-08-17T02:34:28;102152.31;;;15.79;100.00
71791;BME280;59638;52.126;5.434;2023-08-17T02:36:55;102148.66;;;15.80;100.00
71791;BME280;59638;52.126;5.434;2023-08-17T02:39:21;102148.66;;;15.80;100.00
71791;BME280;59638;52.126;5.434;2023-08-17T02:41:48;102150.34;;;15.81;100.00
71791;BME280;59638;52.126;5.434;2023-08-17T02:44:15;102153.69;;;15.83;100.00
71791;BME280;59638;52.126;5.434;2023-08-17T02:46:42;102144.72;;;15.84;100.00
71791;BME280;59638;52.126;5.434;2023-08-17T02:49:08;102141.09;;;15.85;100.00
71791;BME280;59638;52.126;5.434;2023-08-17T02:51:35;102134.06;;;15.84;100.00
71791;BME280;59638;52.126;5.434;2023-08-17T02:54:01;102138.44;;;15.85;100.00
71791;BME280;59638;52.126;5.434;2023-08-17T02:56:28;102137.44;;;15.86;100.00
71791;BME280;59638;52.126;5.434;2023-08-17T02:58:54;102134.78;;;15.86;100.00
71791;BME280;59638;52.126;5.434;2023-08-17T03:01:21;102136.72;;;15.84;100.00
71791;BME280;59638;52.126;5.434;2023-08-17T03:03:47;102137.72;;;15.83;100.00
71791;BME280;59638;52.126;5.434;2023-08-17T03:06:14;102139.38;;;15.84;100.00
71791;BME280;59638;52.126;5.434;2023-08-17T03:08:40;102144.72;;;15.84;100.00
71791;BME280;59638;52.126;5.434;2023-08-17T03:11:07;102138.53;;;15.84;100.00
71791;BME280;59638;52.126;5.434;2023-08-17T03:13:35;102137.59;;;15.85;100.00
71791;BME280;59638;52.126;5.434;2023-08-17T03:16:02;102141.09;;;15.85;100.00
71791;BME280;59638;52.126;5.434;2023-08-17T03:18:29;102144.44;;;15.87;100.00
71791;BME280;59638;52.126;5.434;2023-08-17T03:20:55;102147.09;;;15.87;100.00
71791;BME280;59638;52.126;5.434;2023-08-17T03:23:21;102142.78;;;15.86;100.00
71791;BME280;59638;52.126;5.434;2023-08-17T03:25:54;102142.78;;;15.86;100.00
71791;BME280;59638;52.126;5.434;2023-08-17T03:28:20;102135.78;;;15.85;100.00
71791;BME280;59638;52.126;5.434;2023-08-17T03:30:47;102130.44;;;15.85;100.00
71791;BME280;59638;52.126;5.434;2023-08-17T03:33:13;102127.06;;;15.83;100.00
71791;BME280;59638;52.126;5.434;2023-08-17T03:35:39;102130.44;;;15.85;100.00
71791;BME280;59638;52.126;5.434;2023-08-17T03:38:06;102127.91;;;15.84;100.00
71791;BME280;59638;52.126;5.434;2023-08-17T03:40:32;102131.41;;;15.84;100.00
71791;BME280;59638;52.126;5.434;2023-08-17T03:42:59;102134.06;;;15.84;100.00
71791;BME280;59638;52.126;5.434;2023-08-17T03:45:25;102127.34;;;15.80;100.00
71791;BME280;59638;52.126;5.434;2023-08-17T03:47:52;102136.19;;;15.81;100.00
71791;BME280;59638;52.126;5.434;2023-08-17T03:50:18;102129.03;;;15.81;100.00
71791;BME280;59638;52.126;5.434;2023-08-17T03:52:45;102132.69;;;15.80;100.00
71791;BME280;59638;52.126;5.434;2023-08-17T03:55:11;102122.03;;;15.80;100.00
71791;BME280;59638;52.126;5.434;2023-08-17T03:57:38;102127.34;;;15.80;100.00
71791;BME280;59638;52.126;5.434;2023-08-17T04:00:06;102129.19;;;15.80;100.00
71791;BME280;59638;52.126;5.434;2023-08-17T04:02:33;102121.19;;;15.80;100.00
71791;BME280;59638;52.126;5.434;2023-08-17T04:04:59;102124.00;;;15.78;100.00
71791;BME280;59638;52.126;5.434;2023-08-17T04:07:26;102131.00;;;15.79;100.00
71791;BME280;59638;52.126;5.434;2023-08-17T04:09:53;102131.84;;;15.80;100.00
71791;BME280;59638;52.126;5.434;2023-08-17T04:12:20;102131.84;;;15.80;100.00
71791;BME280;59638;52.126;5.434;2023-08-17T04:14:46;102130.00;;;15.80;100.00
71791;BME280;59638;52.126;5.434;2023-08-17T04:17:13;102136.31;;;15.79;100.00
71791;BME280;59638;52.126;5.434;2023-08-17T04:19:39;102125.78;;;15.77;100.00
71791;BME280;59638;52.126;5.434;2023-08-17T04:22:05;102131.84;;;15.80;100.00
71791;BME280;59638;52.126;5.434;2023-08-17T04:24:32;102128.34;;;15.79;100.00
71791;BME280;59638;52.126;5.434;2023-08-17T04:26:58;102127.34;;;15.80;100.00
71791;BME280;59638;52.126;5.434;2023-08-17T04:29:25;102130.00;;;15.80;100.00
71791;BME280;59638;52.126;5.434;2023-08-17T04:31:51;102126.22;;;15.83;100.00
71791;BME280;59638;52.126;5.434;2023-08-17T04:34:18;102129.88;;;15.82;100.00
71791;BME280;59638;52.126;5.434;2023-08-17T04:36:45;102124.69;;;15.80;100.00
71791;BME280;59638;52.126;5.434;2023-08-17T04:39:11;102122.03;;;15.80;100.00
71791;BME280;59638;52.126;5.434;2023-08-17T04:41:38;102116.69;;;15.80;100.00
71791;BME280;59638;52.126;5.434;2023-08-17T04:44:05;102126.38;;;15.81;100.00
71791;BME280;59638;52.126;5.434;2023-08-17T04:46:31;102120.06;;;15.82;100.00
71791;BME280;59638;52.126;5.434;2023-08-17T04:48:58;102112.75;;;15.84;100.00
71791;BME280;59638;52.126;5.434;2023-08-17T04:51:24;102120.47;;;15.87;100.00
71791;BME280;59638;52.126;5.434;2023-08-17T04:53:51;102120.47;;;15.87;100.00
71791;BME280;59638;52.126;5.434;2023-08-17T04:56:18;102119.50;;;15.88;100.00
71791;BME280;59638;52.126;5.434;2023-08-17T04:58:44;102121.16;;;15.89;100.00
71791;BME280;59638;52.126;5.434;2023-08-17T05:01:11;102124.56;;;15.91;100.00
71791;BME280;59638;52.126;5.434;2023-08-17T05:03:37;102121.75;;;15.93;100.00
71791;BME280;59638;52.126;5.434;2023-08-17T05:06:04;102120.59;;;15.95;100.00
71791;BME280;59638;52.126;5.434;2023-08-17T05:08:30;102115.00;;;15.98;100.00
71791;BME280;59638;52.126;5.434;2023-08-17T05:10:57;102112.19;;;16.00;100.00
71791;BME280;59638;52.126;5.434;2023-08-17T05:13:23;102114.72;;;16.01;100.00
71791;BME280;59638;52.126;5.434;2023-08-17T05:15:50;102115.97;;;16.07;100.00
71791;BME280;59638;52.126;5.434;2023-08-17T05:18:16;102110.22;;;16.12;100.00
71791;BME280;59638;52.126;5.434;2023-08-17T05:20:43;102110.78;;;16.15;100.00
71791;BME280;59638;52.126;5.434;2023-08-17T05:23:09;102102.34;;;16.20;100.00
71791;BME280;59638;52.126;5.434;2023-08-17T05:25:36;102111.72;;;16.24;100.00
71791;BME280;59638;52.126;5.434;2023-08-17T05:28:02;102115.78;;;16.28;100.00
71791;BME280;59638;52.126;5.434;2023-08-17T05:30:29;102121.53;;;16.33;100.00
71791;BME280;59638;52.126;5.434;2023-08-17T05:32:55;102114.34;;;16.43;100.00
71791;BME280;59638;52.126;5.434;2023-08-17T05:35:22;102117.97;;;16.52;100.00
71791;BME280;59638;52.126;5.434;2023-08-17T05:37:48;102118.25;;;16.58;100.00
71791;BME280;59638;52.126;5.434;2023-08-17T05:40:15;102111.03;;;16.69;100.00
71791;BME280;59638;52.126;5.434;2023-08-17T05:42:42;102116.91;;;16.82;100.00
71791;BME280;59638;52.126;5.434;2023-08-17T05:45:09;102120.06;;;16.95;100.00
71791;BME280;59638;52.126;5.434;2023-08-17T05:47:35;102112.16;;;17.03;100.00
71791;BME280;59638;52.126;5.434;2023-08-17T05:50:02;102114.63;;;17.15;100.00
71791;BME280;59638;52.126;5.434;2023-08-17T05:52:28;102116.53;;;17.22;100.00
71791;BME280;59638;52.126;5.434;2023-08-17T05:54:55;102120.16;;;17.31;100.00
71791;BME280;59638;52.126;5.434;2023-08-17T05:57:21;102116.97;;;17.45;100.00
71791;BME280;59638;52.126;5.434;2023-08-17T05:59:48;102127.19;;;17.50;100.00
71791;BME280;59638;52.126;5.434;2023-08-17T06:02:15;102125.88;;;17.54;100.00
71791;BME280;59638;52.126;5.434;2023-08-17T06:04:41;102135.72;;;17.53;100.00
71791;BME280;59638;52.126;5.434;2023-08-17T06:07:08;102133.72;;;17.55;100.00
71791;BME280;59638;52.126;5.434;2023-08-17T06:09:35;102141.16;;;17.44;100.00
71791;BME280;59638;52.126;5.434;2023-08-17T06:12:01;102138.53;;;17.34;100.00
71791;BME280;59638;52.126;5.434;2023-08-17T06:14:27;102144.06;;;17.23;100.00
71791;BME280;59638;52.126;5.434;2023-08-17T06:16:54;102152.97;;;17.13;100.00
71791;BME280;59638;52.126;5.434;2023-08-17T06:19:21;102152.56;;;17.08;100.00
71791;BME280;59638;52.126;5.434;2023-08-17T06:21:47;102156.91;;;17.09;100.00
71791;BME280;59638;52.126;5.434;2023-08-17T06:24:14;102157.88;;;17.18;100.00
71791;BME280;59638;52.126;5.434;2023-08-17T06:26:40;102152.84;;;17.33;100.00
71791;BME280;59638;52.126;5.434;2023-08-17T06:29:07;102152.94;;;17.41;100.00
71791;BME280;59638;52.126;5.434;2023-08-17T06:31:34;102150.66;;;17.46;100.00
71791;BME280;59638;52.126;5.434;2023-08-17T06:34:00;102159.06;;;17.51;100.00
71791;BME280;59638;52.126;5.434;2023-08-17T06:36:31;102159.22;;;17.50;100.00
71791;BME280;59638;52.126;5.434;2023-08-17T06:38:57;102158.34;;;17.49;100.00
71791;BME280;59638;52.126;5.434;2023-08-17T06:41:24;102161.34;;;17.46;100.00
71791;BME280;59638;52.126;5.434;2023-08-17T06:43:51;102156.31;;;17.43;100.00
71791;BME280;59638;52.126;5.434;2023-08-17T06:46:17;102168.34;;;17.47;100.00
71791;BME280;59638;52.126;5.434;2023-08-17T06:48:44;102155.56;;;17.51;100.00
71791;BME280;59638;52.126;5.434;2023-08-17T06:51:11;102156.16;;;17.62;100.00
71791;BME280;59638;52.126;5.434;2023-08-17T06:53:37;102156.25;;;17.71;99.93
71791;BME280;59638;52.126;5.434;2023-08-17T06:56:04;102151.31;;;17.76;99.73
71791;BME280;59638;52.126;5.434;2023-08-17T06:58:30;102162.69;;;17.78;98.76
71791;BME280;59638;52.126;5.434;2023-08-17T07:00:56;102152.69;;;17.80;100.00
71791;BME280;59638;52.126;5.434;2023-08-17T07:03:23;102162.38;;;17.81;100.00
71791;BME280;59638;52.126;5.434;2023-08-17T07:05:49;102161.38;;;17.82;100.00
71791;BME280;59638;52.126;5.434;2023-08-17T07:08:16;102159.41;;;17.84;98.54
71791;BME280;59638;52.126;5.434;2023-08-17T07:10:43;102168.94;;;17.86;99.79
71791;BME280;59638;52.126;5.434;2023-08-17T07:13:09;102166.13;;;17.88;98.99
71791;BME280;59638;52.126;5.434;2023-08-17T07:15:36;102156.28;;;17.88;98.90
71791;BME280;59638;52.126;5.434;2023-08-17T07:18:02;102166.44;;;17.85;99.27
71791;BME280;59638;52.126;5.434;2023-08-17T07:20:29;102152.31;;;17.92;99.28
71791;BME280;59638;52.126;5.434;2023-08-17T07:22:55;102161.38;;;18.17;99.21
71791;BME280;59638;52.126;5.434;2023-08-17T07:25:23;102166.41;;;18.46;98.70
71791;BME280;59638;52.126;5.434;2023-08-17T07:27:49;102156.66;;;18.89;97.51
71791;BME280;59638;52.126;5.434;2023-08-17T07:30:16;102159.81;;;19.27;94.29
71791;BME280;59638;52.126;5.434;2023-08-17T07:32:42;102157.66;;;19.39;91.12
71791;BME280;59638;52.126;5.434;2023-08-17T07:35:09;102159.78;;;19.69;89.73
71791;BME280;59638;52.126;5.434;2023-08-17T07:37:38;102153.75;;;20.00;91.27
71791;BME280;59638;52.126;5.434;2023-08-17T07:40:05;102155.41;;;20.25;88.73
71791;BME280;59638;52.126;5.434;2023-08-17T07:42:32;102151.25;;;20.95;85.48
71791;BME280;59638;52.126;5.434;2023-08-17T07:44:59;102154.63;;;20.88;83.75
71791;BME280;59638;52.126;5.434;2023-08-17T07:47:25;102149.88;;;21.69;83.49
71791;BME280;59638;52.126;5.434;2023-08-17T07:49:52;102153.97;;;22.40;79.62
71791;BME280;59638;52.126;5.434;2023-08-17T07:52:19;102152.06;;;22.78;76.37
71791;BME280;59638;52.126;5.434;2023-08-17T07:54:45;102162.16;;;22.62;77.12
71791;BME280;59638;52.126;5.434;2023-08-17T07:57:12;102155.84;;;22.55;75.95
71791;BME280;59638;52.126;5.434;2023-08-17T07:59:38;102158.66;;;23.05;73.96
71791;BME280;59638;52.126;5.434;2023-08-17T08:02:05;102166.97;;;22.51;74.69
71791;BME280;59638;52.126;5.434;2023-08-17T08:04:31;102168.91;;;22.28;77.48
71791;BME280;59638;52.126;5.434;2023-08-17T08:06:58;102164.84;;;22.62;75.42
71791;BME280;59638;52.126;5.434;2023-08-17T08:09:24;102163.66;;;23.09;73.86
71791;BME280;59638;52.126;5.434;2023-08-17T08:11:51;102160.69;;;23.97;70.91
71791;BME280;59638;52.126;5.434;2023-08-17T08:14:17;102149.34;;;24.58;68.65
71791;BME280;59638;52.126;5.434;2023-08-17T08:16:44;102152.94;;;25.13;67.77
71791;BME280;59638;52.126;5.434;2023-08-17T08:19:10;102151.38;;;25.45;65.54
71791;BME280;59638;52.126;5.434;2023-08-17T08:21:37;102156.88;;;25.85;62.86
71791;BME280;59638;52.126;5.434;2023-08-17T08:24:03;102153.88;;;25.46;63.61
71791;BME280;59638;52.126;5.434;2023-08-17T08:26:36;102163.84;;;24.50;66.37
71791;BME280;59638;52.126;5.434;2023-08-17T08:29:02;102155.22;;;23.69;69.39
71791;BME280;59638;52.126;5.434;2023-08-17T08:31:29;102156.31;;;22.73;70.58
71791;BME280;59638;52.126;5.434;2023-08-17T08:33:55;102154.38;;;21.91;72.97
71791;BME280;59638;52.126;5.434;2023-08-17T08:36:22;102153.91;;;21.65;75.62
71791;BME280;59638;52.126;5.434;2023-08-17T08:38:48;102159.66;;;21.85;76.51
71791;BME280;59638;52.126;5.434;2023-08-17T08:41:15;102154.38;;;21.91;77.53
71791;BME280;59638;52.126;5.434;2023-08-17T08:43:41;102156.53;;;21.96;79.47
71791;BME280;59638;52.126;5.434;2023-08-17T08:46:09;102163.69;;;21.58;79.42
71791;BME280;59638;52.126;5.434;2023-08-17T08:48:38;102162.88;;;21.18;79.54
71791;BME280;59638;52.126;5.434;2023-08-17T08:51:08;102158.91;;;21.06;80.45
71791;BME280;59638;52.126;5.434;2023-08-17T08:53:45;102152.38;;;21.08;81.04
71791;BME280;59638;52.126;5.434;2023-08-17T08:56:12;102151.53;;;21.08;80.59
71791;BME280;59638;52.126;5.434;2023-08-17T08:58:40;102154.00;;;20.86;82.62
71791;BME280;59638;52.126;5.434;2023-08-17T09:01:08;102148.69;;;20.62;82.18
71791;BME280;59638;52.126;5.434;2023-08-17T09:03:36;102154.75;;;20.56;81.94
71791;BME280;59638;52.126;5.434;2023-08-17T09:06:03;102145.94;;;20.86;82.20
71791;BME280;59638;52.126;5.434;2023-08-17T09:08:30;102133.75;;;21.69;82.17
71791;BME280;59638;52.126;5.434;2023-08-17T09:10:57;102131.09;;;22.07;77.10
71791;BME280;59638;52.126;5.434;2023-08-17T09:13:24;102139.56;;;22.18;77.44
71791;BME280;59638;52.126;5.434;2023-08-17T09:15:50;102147.09;;;22.23;76.93
71791;BME280;59638;52.126;5.434;2023-08-17T09:18:17;102139.19;;;22.21;76.19
71791;BME280;59638;52.126;5.434;2023-08-17T09:20:46;102124.75;;;21.99;78.04
71791;BME280;59638;52.126;5.434;2023-08-17T09:23:16;102132.28;;;21.58;77.58
71791;BME280;59638;52.126;5.434;2023-08-17T09:25:44;102128.47;;;21.30;78.85
71791;BME280;59638;52.126;5.434;2023-08-17T09:28:12;102131.63;;;21.25;80.47
71791;BME280;59638;52.126;5.434;2023-08-17T09:30:55;102125.28;;;21.18;81.61
71791;BME280;59638;52.126;5.434;2023-08-17T09:33:23;102123.94;;;21.22;82.17
71791;BME280;59638;52.126;5.434;2023-08-17T09:35:50;102122.59;;;21.26;82.27
71791;BME280;59638;52.126;5.434;2023-08-17T09:38:23;102120.88;;;21.25;81.52
71791;BME280;59638;52.126;5.434;2023-08-17T09:40:50;102128.66;;;21.20;80.26
71791;BME280;59638;52.126;5.434;2023-08-17T09:43:17;102120.28;;;21.15;82.98
71791;BME280;59638;52.126;5.434;2023-08-17T09:45:45;102118.06;;;21.27;81.25
71791;BME280;59638;52.126;5.434;2023-08-17T09:48:17;102123.53;;;21.41;83.42
71791;BME280;59638;52.126;5.434;2023-08-17T09:50:45;102118.69;;;21.60;79.72
71791;BME280;59638;52.126;5.434;2023-08-17T09:53:13;102104.94;;;21.78;79.99
71791;BME280;59638;52.126;5.434;2023-08-17T09:55:41;102108.03;;;21.89;81.02
71791;BME280;59638;52.126;5.434;2023-08-17T09:58:09;102102.50;;;21.68;81.70
71791;BME280;59638;52.126;5.434;2023-08-17T10:00:36;102113.25;;;21.45;81.46
71791;BME280;59638;52.126;5.434;2023-08-17T10:03:04;102112.47;;;21.36;81.32
71791;BME280;59638;52.126;5.434;2023-08-17T10:05:38;102107.81;;;21.22;81.62
71791;BME280;59638;52.126;5.434;2023-08-17T10:08:06;102106.81;;;21.23;82.51
71791;BME280;59638;52.126;5.434;2023-08-17T10:10:35;102105.78;;;21.24;85.14
71791;BME280;59638;52.126;5.434;2023-08-17T10:13:28;102103.09;;;21.01;81.62
71791;BME280;59638;52.126;5.434;2023-08-17T10:16:02;102101.16;;;20.87;84.35
71791;BME280;59638;52.126;5.434;2023-08-17T10:21:28;102090.59;;;20.77;83.32
71791;BME280;59638;52.126;5.434;2023-08-17T10:23:56;102090.88;;;20.90;83.90
71791;BME280;59638;52.126;5.434;2023-08-17T10:26:24;102091.25;;;20.87;84.70
71791;BME280;59638;52.126;5.434;2023-08-17T10:28:54;102097.63;;;20.86;84.84
71791;BME280;59638;52.126;5.434;2023-08-17T10:31:26;102093.19;;;21.02;87.98
71791;BME280;59638;52.126;5.434;2023-08-17T10:33:53;102084.00;;;21.19;85.42
71791;BME280;59638;52.126;5.434;2023-08-17T10:36:20;102082.81;;;21.22;83.14
71791;BME280;59638;52.126;5.434;2023-08-17T10:38:47;102085.31;;;21.31;85.23
71791;BME280;59638;52.126;5.434;2023-08-17T10:41:14;102091.34;;;21.25;86.27
71791;BME280;59638;52.126;5.434;2023-08-17T10:43:57;102085.97;;;21.25;85.45
71791;BME280;59638;52.126;5.434;2023-08-17T10:46:36;102096.06;;;21.23;86.17
71791;BME280;59638;52.126;5.434;2023-08-17T10:49:04;102095.34;;;21.06;84.76
71791;BME280;59638;52.126;5.434;2023-08-17T10:51:32;102097.06;;;20.91;86.33
71791;BME280;59638;52.126;5.434;2023-08-17T10:54:02;102098.41;;;20.95;85.17
71791;BME280;59638;52.126;5.434;2023-08-17T10:56:30;102097.91;;;21.00;87.39
71791;BME280;59638;52.126;5.434;2023-08-17T10:59:01;102097.56;;;20.95;86.22
71791;BME280;59638;52.126;5.434;2023-08-17T11:01:32;102101.00;;;20.80;85.50
71791;BME280;59638;52.126;5.434;2023-08-17T11:04:15;102085.19;;;20.85;84.55
71791;BME280;59638;52.126;5.434;2023-08-17T11:06:44;102093.50;;;20.99;85.19
71791;BME280;59638;52.126;5.434;2023-08-17T11:09:12;102080.06;;;21.07;84.47
71791;BME280;59638;52.126;5.434;2023-08-17T11:11:42;102087.81;;;21.25;82.45
71791;BME280;59638;52.126;5.434;2023-08-17T11:14:08;102077.44;;;21.30;83.43
71791;BME280;59638;52.126;5.434;2023-08-17T11:16:35;102084.06;;;21.42;84.18
71791;BME280;59638;52.126;5.434;2023-08-17T11:19:01;102084.28;;;21.32;83.12
71791;BME280;59638;52.126;5.434;2023-08-17T11:21:28;102088.94;;;21.38;82.29
71791;BME280;59638;52.126;5.434;2023-08-17T11:23:55;102085.25;;;21.39;81.38
71791;BME280;59638;52.126;5.434;2023-08-17T11:26:23;102081.13;;;21.29;82.92
71791;BME280;59638;52.126;5.434;2023-08-17T11:28:50;102087.66;;;21.26;85.55
71791;BME280;59638;52.126;5.434;2023-08-17T11:31:16;102086.31;;;21.30;81.60
71791;BME280;59638;52.126;5.434;2023-08-17T11:33:43;102083.66;;;21.22;84.32
71791;BME280;59638;52.126;5.434;2023-08-17T11:36:09;102083.72;;;21.14;85.96
71791;BME280;59638;52.126;5.434;2023-08-17T11:38:41;102093.38;;;21.23;85.40
71791;BME280;59638;52.126;5.434;2023-08-17T11:41:08;102089.03;;;21.22;84.26
71791;BME280;59638;52.126;5.434;2023-08-17T11:43:36;102088.59;;;21.10;83.79
71791;BME280;59638;52.126;5.434;2023-08-17T11:46:03;102080.53;;;21.10;85.04
71791;BME280;59638;52.126;5.434;2023-08-17T11:48:30;102083.00;;;21.20;83.33
71791;BME280;59638;52.126;5.434;2023-08-17T11:51:00;102074.88;;;21.36;85.31
71791;BME280;59638;52.126;5.434;2023-08-17T11:53:33;102078.69;;;21.42;85.78
71791;BME280;59638;52.126;5.434;2023-08-17T11:55:59;102073.84;;;21.60;81.95
71791;BME280;59638;52.126;5.434;2023-08-17T11:58:42;102070.50;;;21.58;82.79
71791;BME280;59638;52.126;5.434;2023-08-17T12:01:11;102079.16;;;21.45;83.37
71791;BME280;59638;52.126;5.434;2023-08-17T12:03:39;102079.28;;;21.29;82.02
71791;BME280;59638;52.126;5.434;2023-08-17T12:06:06;102071.00;;;21.08;85.10
71791;BME280;59638;52.126;5.434;2023-08-17T12:08:34;102076.09;;;20.95;86.78
71791;BME280;59638;52.126;5.434;2023-08-17T12:11:02;102083.59;;;20.68;87.61
71791;BME280;59638;52.126;5.434;2023-08-17T12:13:35;102078.28;;;20.52;89.19
71791;BME280;59638;52.126;5.434;2023-08-17T12:16:02;102077.97;;;20.47;90.25
71791;BME280;59638;52.126;5.434;2023-08-17T12:18:33;102065.06;;;20.42;88.63
71791;BME280;59638;52.126;5.434;2023-08-17T12:21:00;102080.31;;;20.42;90.18
71791;BME280;59638;52.126;5.434;2023-08-17T12:23:28;102078.31;;;20.35;90.61
71791;BME280;59638;52.126;5.434;2023-08-17T12:25:55;102079.47;;;20.41;91.34
71791;BME280;59638;52.126;5.434;2023-08-17T12:28:23;102073.09;;;20.50;89.96
71791;BME280;59638;52.126;5.434;2023-08-17T12:31:00;102072.59;;;20.55;88.58
71791;BME280;59638;52.126;5.434;2023-08-17T12:33:27;102068.53;;;20.67;88.02
71791;BME280;59638;52.126;5.434;2023-08-17T12:35:54;102073.81;;;20.83;88.39
71791;BME280;59638;52.126;5.434;2023-08-17T12:38:24;102074.13;;;20.88;86.43
71791;BME280;59638;52.126;5.434;2023-08-17T12:40:50;102076.16;;;20.78;85.15
71791;BME280;59638;52.126;5.434;2023-08-17T12:43:17;102074.06;;;20.57;86.05
71791;BME280;59638;52.126;5.434;2023-08-17T12:45:43;102074.44;;;20.46;88.27
71791;BME280;59638;52.126;5.434;2023-08-17T12:48:10;102077.44;;;20.43;88.68
71791;BME280;59638;52.126;5.434;2023-08-17T12:50:36;102083.88;;;20.34;87.08
71791;BME280;59638;52.126;5.434;2023-08-17T12:53:09;102085.03;;;20.31;88.51